Aérodrome :
LOGIN :

S'inscrire | Disclaimer

   EN    FR    IT 

 










Légende :    VFR   VFR Marginal   IFR   IFR Intensif   IFR Très Intensif
Visi : 
Plafond : 
>= 8 km
>= 3000ft
5 à 8 km
1000 à 3000 ft
1500m à 5 km
500 à 1000 ft
800 à 1500m
200 à 500 ft
< 800m
< 200 ft
Symboles :   Orages  Brouillard  Fortes neiges  Fortes précipitations  Vent > 20 kt
SIGMETs :   Divers  Orages  Givrage  Turbulence  Onde Orograph.  Cendres Volcan.







- Altitude de l'aérodrome : 408 ft
- Code IATA : FKB


EDSB - Karlsruhe Baden Baden

DERNIER METAR :
  • 181050Z VRB02KT CAVOK 18/10 Q1016

METARs EXPIRÉS :
  • 181020Z VRB03KT CAVOK 15/11 Q1016
  • 180950Z 00000KT CAVOK 15/10 Q1016
  • 180920Z VRB02KT CAVOK 13/10 Q1017
  • 180850Z VRB02KT CAVOK 12/10 Q1017
  • 180820Z VRB02KT CAVOK 12/09 Q1017

TAF TAF EDSB
Valide du 18 à 06h jusqu'au 19 à 06h UTC


180500Z 1806/1906 VRB03KT 7000 NSC
TEMPO 1806/1808 0400 FG VV001
TEMPO 1902/1906 0400 FG VV001
Pas de NOTAMs connus pour ce terrain.



MET'MAP, la Météo Aéronautique d'un coup d'oeil ! - Copyright ORBIFLY Décembre 2007 - Disclaimer

ORBIFLY MET'MAP TEAM :

Programmation & Développement : Alexandra Zaïnal
Conception & Développement : Baudouin d'Aumeries
Co-Programmation & Développement : Marc-Olivier Méhu
Soutien technique & logistique : Manuel Goepfert

Contact : metmap@orbifly.com




SOURCES & CREDITS :

   NOAA